Vega Gamleby — SKQG — position and weather

sailwx.info

Track history (hours):
 
Tides and Currents Weather Stations Pressure Air Temp Water Temp Dewpoint Dewpoint Depression Visibility Wind Speed Wind Dir Waves Ship Positions

Vega Gamleby

Last reported at 2019-Aug-21 18:01 UTC. Time now 2019-Aug-24 19:52 UTC.
Position N 57°26' E 016°48'.

Length 31 m.

Type: Sailing vessel. MMSI: 266299000.

Date/timePositionNaut miles runAvg speedWind from/ knotsBaromVisibWave heightAir tempDewpointWater temp
2019-Aug-21 18:01N 57°26' E 016°48'1 8.0
2019-Aug-21 17:57N 57°26' E 016°48'3 7.0
2019-Aug-21 17:29N 57°23' E 016°48'2 4.2
2019-Aug-21 16:59N 57°20' E 016°47'63 2.4
2019-Aug-20 15:12N 56°21' E 016°11'2 6.6
2019-Aug-20 14:50N 56°18' E 016°10'2 7.2
2019-Aug-20 14:30N 56°16' E 016°09'4 7.7
2019-Aug-20 14:00N 56°12' E 016°08'4 7.3
2019-Aug-20 13:30N 56°09' E 016°06'3 5.7
2019-Aug-20 13:00N 56°06' E 016°03'3 5.1
2019-Aug-20 12:30N 56°05' E 015°59'3 5.1
2019-Aug-20 12:00N 56°03' E 015°56'2 4.3
2019-Aug-20 11:30N 56°02' E 015°53'2 4.3
2019-Aug-20 11:00N 55°60' E 015°51'2 4.4
2019-Aug-20 10:30N 55°58' E 015°49'2 4.4
2019-Aug-20 10:00N 55°57' E 015°46'2 4.4
2019-Aug-20 09:30N 55°55' E 015°44'2 4.4
2019-Aug-20 09:00N 55°54' E 015°40'2 4.0
2019-Aug-20 08:30N 55°53' E 015°37'2 4.2
2019-Aug-20 08:00N 55°52' E 015°34'2 4.3
2019-Aug-20 07:30N 55°51' E 015°31'2 4.1
2019-Aug-20 07:00N 55°50' E 015°27'2 4.4
2019-Aug-20 06:30N 55°49' E 015°24'2 4.4
2019-Aug-20 06:00N 55°48' E 015°20'2 4.5
2019-Aug-20 05:30N 55°47' E 015°16'122 5.1
2019-Aug-19 05:34N 54°31' E 012°30'7 5.7
2019-Aug-19 04:22N 54°27' E 012°21'2 6.3
2019-Aug-19 04:00N 54°25' E 012°17'3 5.9
2019-Aug-19 03:30N 54°24' E 012°13'3 5.2
2019-Aug-19 02:54N 54°22' E 012°09'10 6.0
2019-Aug-19 01:19N 54°21' E 011°52'1 4.5
2019-Aug-19 01:01N 54°20' E 011°51'3 5.4
2019-Aug-19 00:30N 54°18' E 011°49'3 5.5
2019-Aug-19 00:00N 54°15' E 011°46'15 4.8
2019-Aug-18 20:50N 54°05' E 011°27'3 5.8
2019-Aug-18 20:22N 54°03' E 011°25'3 5.5
2019-Aug-18 19:53N 54°01' E 011°22'3 5.0
2019-Aug-18 19:21N 53°59' E 011°20'3 7.2
2019-Aug-18 18:57N 53°57' E 011°24'3 6.9
2019-Aug-18 18:27N 53°54' E 011°27'0 0.2
2019-Aug-18 17:29N 53°54' E 011°27'0 0.0
2019-Aug-18 16:47N 53°54' E 011°27'0 0.0
2019-Aug-18 15:41N 53°54' E 011°27'0 0.0
2019-Aug-18 15:29N 53°54' E 011°27'0 0.0
2019-Aug-18 14:59N 53°54' E 011°27'0 0.0
2019-Aug-18 14:26N 53°54' E 011°27'0 0.0
2019-Aug-18 13:53N 53°54' E 011°27'1 2.4
2019-Aug-18 13:22N 53°55' E 011°26'2 4.8
2019-Aug-18 13:00N 53°56' E 011°25'2 3.7
2019-Aug-18 12:23N 53°58' E 011°22'2 4.2
2019-Aug-18 11:59N 53°58' E 011°19'2 3.4
2019-Aug-18 11:29N 53°59' E 011°16'2 3.6
2019-Aug-18 10:57N 53°58' E 011°19'2 3.4
2019-Aug-18 10:30N 53°58' E 011°22'1 1.6
2019-Aug-18 10:00N 53°57' E 011°23'4 7.0
2019-Aug-18 09:29N 53°54' E 011°27'1 0.7
2019-Aug-18 08:24N 53°54' E 011°27'0 0.0
2019-Aug-18 07:00N 53°54' E 011°27'0 0.0
2019-Aug-18 06:06N 53°54' E 011°27'0 0.1
2019-Aug-18 06:00N 53°54' E 011°27'0 0.0
2019-Aug-18 05:00N 53°54' E 011°27'0 0.0
2019-Aug-18 04:24N 53°54' E 011°27'0 0.0
2019-Aug-18 03:03N 53°54' E 011°27'0 0.0
2019-Aug-18 02:24N 53°54' E 011°27'0 0.0
2019-Aug-18 01:33N 53°54' E 011°27'0 0.0
2019-Aug-18 01:27N 53°54' E 011°27'0 0.0
2019-Aug-18 00:57N 53°54' E 011°27'0 0.0
2019-Aug-18 00:27N 53°54' E 011°27'0 0.0
2019-Aug-17 23:45N 53°54' E 011°27'0 0.0
2019-Aug-17 23:30N 53°54' E 011°27'0 0.0
2019-Aug-17 22:15N 53°54' E 011°27'0 0.0
2019-Aug-17 21:24N 53°54' E 011°27'0 0.0
2019-Aug-17 20:54N 53°54' E 011°27'0 0.0
2019-Aug-17 20:21N 53°54' E 011°27'0 0.0
2019-Aug-17 19:39N 53°54' E 011°27'0 0.0
2019-Aug-17 19:30N 53°54' E 011°27'0 0.0
2019-Aug-17 18:57N 53°54' E 011°27'0 0.0
2019-Aug-17 18:27N 53°54' E 011°27'0 0.0
2019-Aug-17 17:21N 53°54' E 011°27'0 0.0
2019-Aug-17 16:45N 53°54' E 011°27'0 0.0
2019-Aug-17 16:09N 53°54' E 011°27'0 0.0
2019-Aug-17 16:00N 53°54' E 011°27'0 0.0
2019-Aug-17 14:27N 53°54' E 011°27'1 2.7
2019-Aug-17 13:56N 53°55' E 011°26'3 6.1
2019-Aug-17 13:26N 53°58' E 011°23'2 4.2
2019-Aug-17 12:58N 53°58' E 011°20'1 2.1
2019-Aug-17 12:27N 53°58' E 011°22'1 1.0
2019-Aug-17 11:58N 53°58' E 011°23'2 4.3
2019-Aug-17 11:28N 53°58' E 011°19'0 0.4
2019-Aug-17 10:58N 53°59' E 011°19'3 5.4
2019-Aug-17 10:27N 53°58' E 011°23'1 2.6
2019-Aug-17 10:01N 53°57' E 011°25'3 0.7
2019-Aug-17 05:18N 53°54' E 011°27'0 0.0
2019-Aug-17 05:00N 53°54' E 011°27'0 0.0
2019-Aug-17 04:03N 53°54' E 011°27'0 0.0
2019-Aug-17 03:57N 53°54' E 011°27'0 0.0
2019-Aug-17 02:57N 53°54' E 011°27'0 0.0
2019-Aug-17 02:18N 53°54' E 011°27'0 0.0
2019-Aug-17 01:45N 53°54' E 011°27'0 0.0
2019-Aug-17 01:06N 53°54' E 011°27'0 0.0
2019-Aug-17 00:45N 53°54' E 011°27'0 0.0
2019-Aug-17 00:15N 53°54' E 011°27'0 0.0
2019-Aug-16 23:51N 53°54' E 011°27'0 0.0
2019-Aug-16 23:24N 53°54' E 011°27'0 0.0
2019-Aug-16 22:48N 53°54' E 011°27'0 0.0
2019-Aug-16 22:27N 53°54' E 011°27'0 0.0
2019-Aug-16 21:15N 53°54' E 011°27'0 0.0
2019-Aug-16 20:48N 53°54' E 011°27'0 0.0
2019-Aug-16 20:12N 53°54' E 011°27'0 0.0
2019-Aug-16 19:51N 53°54' E 011°27'0 0.0
2019-Aug-16 19:06N 53°54' E 011°27'0 0.0
2019-Aug-16 18:42N 53°54' E 011°27'0 0.1
2019-Aug-16 18:30N 53°54' E 011°27'0 0.0
2019-Aug-16 17:57N 53°54' E 011°27'0 0.0
2019-Aug-16 17:24N 53°54' E 011°27'0 0.0
2019-Aug-16 16:54N 53°54' E 011°27'0 0.0
2019-Aug-16 15:51N 53°54' E 011°27'0 0.0
2019-Aug-16 15:30N 53°54' E 011°27'0 0.0
2019-Aug-16 14:48N 53°54' E 011°27'0 0.0
2019-Aug-16 14:09N 53°54' E 011°27'0 0.0
2019-Aug-16 13:39N 53°54' E 011°27'0 0.0
2019-Aug-16 13:30N 53°54' E 011°27'0 0.0
2019-Aug-16 11:54N 53°54' E 011°27'0 0.0
2019-Aug-16 11:15N 53°54' E 011°27'0 0.0
2019-Aug-16 11:00N 53°54' E 011°27'0 0.0
2019-Aug-16 09:51N 53°54' E 011°27'0 0.0
2019-Aug-16 09:09N 53°54' E 011°27'0 0.0
2019-Aug-16 08:30N 53°54' E 011°27'0 0.0
2019-Aug-16 07:21N 53°54' E 011°27'0 0.0
2019-Aug-16 06:00N 53°54' E 011°27'0 0.0
2019-Aug-16 05:30N 53°54' E 011°27'0 0.0
2019-Aug-16 04:06N 53°54' E 011°27'0 0.0
2019-Aug-16 03:48N 53°54' E 011°27'0 0.0
2019-Aug-16 03:27N 53°54' E 011°27'0 0.0
2019-Aug-16 02:51N 53°54' E 011°27'0 0.0
2019-Aug-16 02:15N 53°54' E 011°27'0 0.0
2019-Aug-16 01:18N 53°54' E 011°27'0 0.0
2019-Aug-15 23:36N 53°54' E 011°27'0 0.0
2019-Aug-15 22:27N 53°54' E 011°27'0 0.0
2019-Aug-15 21:57N 53°54' E 011°27'0 0.0
2019-Aug-15 21:00N 53°54' E 011°27'0 0.0
2019-Aug-15 19:57N 53°54' E 011°27'0 0.0
2019-Aug-15 19:12N 53°54' E 011°27'0 0.0
2019-Aug-15 19:00N 53°54' E 011°27'0 0.0
2019-Aug-15 18:00N 53°54' E 011°27'0 0.0
2019-Aug-15 17:12N 53°54' E 011°27'0 0.2
2019-Aug-15 16:54N 53°54' E 011°27'2 6.1
2019-Aug-15 16:30N 53°56' E 011°25'3 4.8
2019-Aug-15 15:55N 53°58' E 011°21'1 2.9
2019-Aug-15 15:30N 53°57' E 011°24'1 1.0
2019-Aug-15 15:00N 53°57' E 011°24'4 6.5
2019-Aug-15 14:28N 53°54' E 011°27'0 0.4
2019-Aug-15 13:38N 53°54' E 011°27'0 0.0
2019-Aug-15 13:20N 53°54' E 011°27'0 0.0
2019-Aug-15 12:59N 53°54' E 011°27'0 0.0
2019-Aug-15 12:20N 53°54' E 011°27'0 0.0
2019-Aug-15 11:47N 53°54' E 011°27'0 0.0
2019-Aug-15 10:47N 53°54' E 011°27'0 0.0
2019-Aug-15 10:26N 53°54' E 011°27'0 0.0
2019-Aug-15 09:56N 53°54' E 011°27'0 0.0
2019-Aug-15 09:05N 53°54' E 011°27'0 0.0
2019-Aug-15 08:47N 53°54' E 011°27'0 0.0
2019-Aug-15 07:32N 53°54' E 011°27'0 0.1
2019-Aug-15 07:23N 53°54' E 011°27'0 0.0
2019-Aug-15 06:59N 53°54' E 011°27'0 0.0
2019-Aug-15 06:23N 53°54' E 011°27'0 0.0
2019-Aug-15 05:59N 53°54' E 011°27'0 0.0
2019-Aug-15 05:05N 53°54' E 011°27'0 0.0
2019-Aug-15 04:38N 53°54' E 011°27'0 0.0
2019-Aug-15 04:20N 53°54' E 011°27'0 0.0
2019-Aug-15 03:59N 53°54' E 011°27'0 0.0
2019-Aug-15 02:26N 53°54' E 011°27'0 0.0
2019-Aug-15 01:47N 53°54' E 011°27'0 0.0
2019-Aug-15 01:23N 53°54' E 011°27'0 0.0
2019-Aug-15 00:47N 53°54' E 011°27'0 0.0
2019-Aug-15 00:29N 53°54' E 011°27'0 0.0
2019-Aug-14 23:56N 53°54' E 011°27'0 0.0
2019-Aug-14 23:23N 53°54' E 011°27'0 0.0
2019-Aug-14 22:56N 53°54' E 011°27'0 0.0
2019-Aug-14 22:20N 53°54' E 011°27'0 0.0
2019-Aug-14 21:53N 53°54' E 011°27'0 0.0
2019-Aug-14 21:23N 53°54' E 011°27'0 0.0
2019-Aug-14 20:26N 53°54' E 011°27'0 0.0
2019-Aug-14 19:11N 53°54' E 011°27'0 0.0
2019-Aug-14 18:38N 53°54' E 011°27'0 0.0
2019-Aug-14 18:11N 53°54' E 011°27'0 0.0
2019-Aug-14 17:59N 53°54' E 011°27'0 0.0
2019-Aug-14 17:17N 53°54' E 011°27'0 0.0
2019-Aug-14 16:26N 53°54' E 011°27'0 0.0
2019-Aug-14 15:53N 53°54' E 011°27'0 0.0
2019-Aug-14 15:23N 53°54' E 011°27'0 0.0
2019-Aug-14 13:56N 53°54' E 011°27'0 0.0
2019-Aug-14 13:23N 53°54' E 011°27'0 0.0
2019-Aug-14 12:59N 53°54' E 011°27'0 0.0
2019-Aug-14 12:26N 53°54' E 011°27'0 0.0
2019-Aug-14 03:50N 53°54' E 011°27'0 0.0
2019-Aug-14 03:23N 53°54' E 011°27'0 0.0
2019-Aug-14 02:47N 53°54' E 011°27'0 0.0
2019-Aug-14 02:20N 53°54' E 011°27'0 0.0
2019-Aug-14 01:56N 53°54' E 011°27'0 0.0
2019-Aug-14 01:26N 53°54' E 011°27'0 0.0
2019-Aug-14 00:11N 53°54' E 011°27'0 0.0
2019-Aug-13 23:53N 53°54' E 011°27'0 0.0
2019-Aug-13 23:23N 53°54' E 011°27'0 0.0
2019-Aug-13 22:53N 53°54' E 011°27'0 0.0
2019-Aug-13 22:29N 53°54' E 011°27'0 0.0
2019-Aug-13 21:47N 53°54' E 011°27'0 0.0
2019-Aug-13 20:41N 53°54' E 011°27'0 0.0
2019-Aug-13 20:14N 53°54' E 011°27'0 0.1
2019-Aug-13 19:53N 53°54' E 011°27'0 0.0
2019-Aug-13 19:29N 53°54' E 011°27'0 0.0
2019-Aug-13 18:53N 53°54' E 011°27'0 0.0
2019-Aug-13 18:11N 53°54' E 011°27'0 0.0
2019-Aug-13 17:26N 53°54' E 011°27'0 0.0
2019-Aug-13 16:50N 53°54' E 011°27'0 0.0
2019-Aug-13 16:17N 53°54' E 011°27'0 0.0
2019-Aug-13 15:41N 53°54' E 011°27'0 0.0
2019-Aug-13 10:27N 53°54' E 011°27'3 5.7
2019-Aug-13 10:00N 53°56' E 011°25'2 4.1
2019-Aug-13 09:27N 53°58' E 011°22'2 4.9
2019-Aug-13 08:57N 53°58' E 011°18'2 3.7
2019-Aug-13 08:24N 53°57' E 011°15'0 0.1
2019-Aug-13 07:22N 53°58' E 011°15'0 0.0
2019-Aug-13 06:58N 53°58' E 011°15'0 0.0
2019-Aug-13 05:43N 53°58' E 011°15'0 0.0
2019-Aug-13 05:07N 53°58' E 011°15'0 0.0
2019-Aug-13 04:28N 53°58' E 011°15'0 0.0
2019-Aug-13 03:37N 53°58' E 011°15'0 0.0
2019-Aug-13 02:40N 53°58' E 011°15'0 0.0
2019-Aug-13 01:37N 53°58' E 011°15'0 0.0
2019-Aug-13 01:01N 53°58' E 011°15'0 0.0
2019-Aug-13 00:25N 53°58' E 011°15'0 0.0
2019-Aug-12 23:55N 53°58' E 011°15'0 0.0
2019-Aug-12 23:19N 53°58' E 011°15'0 0.0
2019-Aug-12 22:58N 53°58' E 011°15'0 0.0
2019-Aug-12 22:19N 53°58' E 011°15'0 0.0
2019-Aug-12 21:55N 53°58' E 011°15'0 0.0
2019-Aug-12 21:28N 53°58' E 011°15'0 0.0
2019-Aug-12 20:22N 53°58' E 011°15'0 0.0
2019-Aug-12 19:55N 53°58' E 011°15'2 1.0
2019-Aug-12 17:55N 53°58' E 011°18'3 6.8
2019-Aug-12 17:29N 54°01' E 011°20'4 7.1
2019-Aug-12 16:58N 54°03' E 011°26'5 7.6
2019-Aug-12 16:19N 54°07' E 011°31'3 7.7
2019-Aug-12 16:00N 54°08' E 011°34'11 7.0
2019-Aug-12 14:26N 54°11' E 011°52'3 6.6
2019-Aug-12 13:59N 54°11' E 011°57'4 6.8
2019-Aug-12 13:28N 54°11' E 012°03'6 1.5
2019-Aug-12 09:35N 54°06' E 012°07'0 0.0
2019-Aug-12 09:17N 54°06' E 012°07'0 0.0
2019-Aug-12 08:47N 54°06' E 012°07'0 0.0
2019-Aug-12 07:29N 54°06' E 012°07'0 0.0
2019-Aug-12 06:18N 54°06' E 012°07'0 0.0
2019-Aug-12 05:38N 54°06' E 012°07'0 0.0
2019-Aug-12 05:11N 54°06' E 012°07'0 0.0
2019-Aug-12 04:53N 54°06' E 012°07'0 0.0
2019-Aug-12 04:20N 54°06' E 012°07'0 0.0
2019-Aug-12 03:56N 54°06' E 012°07'0 0.0
2019-Aug-12 03:26N 54°06' E 012°07'0 0.0
2019-Aug-12 02:59N 54°06' E 012°07'0 0.0
2019-Aug-12 02:26N 54°06' E 012°07'0 0.0
2019-Aug-12 01:56N 54°06' E 012°07'0 0.0
2019-Aug-12 01:26N 54°06' E 012°07'0 0.0
2019-Aug-12 00:56N 54°06' E 012°07'0 0.0
2019-Aug-12 00:26N 54°06' E 012°07'0 0.0
2019-Aug-11 23:59N 54°06' E 012°07'0 0.0
2019-Aug-11 23:26N 54°06' E 012°07'0 0.0
2019-Aug-11 22:56N 54°06' E 012°07'0 0.0
2019-Aug-11 22:26N 54°06' E 012°07'0 0.0
2019-Aug-11 21:50N 54°06' E 012°07'0 0.0
2019-Aug-11 21:26N 54°06' E 012°07'0 0.0
2019-Aug-11 20:56N 54°06' E 012°07'0 0.0
2019-Aug-11 20:26N 54°06' E 012°07'0 0.0
2019-Aug-11 19:56N 54°06' E 012°07'0 0.0
2019-Aug-11 19:26N 54°06' E 012°07'0 0.0
2019-Aug-11 18:59N 54°06' E 012°07'0 0.0
2019-Aug-11 18:26N 54°06' E 012°07'  
Track history (hours):
 
Tides and Currents Weather Stations Pressure Air Temp Water Temp Dewpoint Dewpoint Depression Visibility Wind Speed Wind Dir Waves Ship Positions

Vega Gamleby

Last reported at 2019-Aug-21 18:01 UTC. Time now 2019-Aug-24 19:52 UTC.
Position N 57°26' E 016°48'.

Length 31 m.

Type: Sailing vessel. MMSI: 266299000.

Date/timePositionNaut miles runAvg speedWind from/ knotsBaromVisibWave heightAir tempDewpointWater temp
2019-Aug-21 18:01N 57°26' E 016°48'1 8.0
2019-Aug-21 17:57N 57°26' E 016°48'3 7.0
2019-Aug-21 17:29N 57°23' E 016°48'2 4.2
2019-Aug-21 16:59N 57°20' E 016°47'63 2.4
2019-Aug-20 15:12N 56°21' E 016°11'2 6.6
2019-Aug-20 14:50N 56°18' E 016°10'2 7.2
2019-Aug-20 14:30N 56°16' E 016°09'4 7.7
2019-Aug-20 14:00N 56°12' E 016°08'4 7.3
2019-Aug-20 13:30N 56°09' E 016°06'3 5.7
2019-Aug-20 13:00N 56°06' E 016°03'3 5.1
2019-Aug-20 12:30N 56°05' E 015°59'3 5.1
2019-Aug-20 12:00N 56°03' E 015°56'2 4.3
2019-Aug-20 11:30N 56°02' E 015°53'2 4.3
2019-Aug-20 11:00N 55°60' E 015°51'2 4.4
2019-Aug-20 10:30N 55°58' E 015°49'2 4.4
2019-Aug-20 10:00N 55°57' E 015°46'2 4.4
2019-Aug-20 09:30N 55°55' E 015°44'2 4.4
2019-Aug-20 09:00N 55°54' E 015°40'2 4.0
2019-Aug-20 08:30N 55°53' E 015°37'2 4.2
2019-Aug-20 08:00N 55°52' E 015°34'2 4.3
2019-Aug-20 07:30N 55°51' E 015°31'2 4.1
2019-Aug-20 07:00N 55°50' E 015°27'2 4.4
2019-Aug-20 06:30N 55°49' E 015°24'2 4.4
2019-Aug-20 06:00N 55°48' E 015°20'2 4.5
2019-Aug-20 05:30N 55°47' E 015°16'122 5.1
2019-Aug-19 05:34N 54°31' E 012°30'7 5.7
2019-Aug-19 04:22N 54°27' E 012°21'2 6.3
2019-Aug-19 04:00N 54°25' E 012°17'3 5.9
2019-Aug-19 03:30N 54°24' E 012°13'3 5.2
2019-Aug-19 02:54N 54°22' E 012°09'10 6.0
2019-Aug-19 01:19N 54°21' E 011°52'1 4.5
2019-Aug-19 01:01N 54°20' E 011°51'3 5.4
2019-Aug-19 00:30N 54°18' E 011°49'3 5.5
2019-Aug-19 00:00N 54°15' E 011°46'15 4.8
2019-Aug-18 20:50N 54°05' E 011°27'3 5.8
2019-Aug-18 20:22N 54°03' E 011°25'3 5.5
2019-Aug-18 19:53N 54°01' E 011°22'3 5.0
2019-Aug-18 19:21N 53°59' E 011°20'3 7.2
2019-Aug-18 18:57N 53°57' E 011°24'3 6.9
2019-Aug-18 18:27N 53°54' E 011°27'0 0.2
2019-Aug-18 17:29N 53°54' E 011°27'0 0.0
2019-Aug-18 16:47N 53°54' E 011°27'0 0.0
2019-Aug-18 15:41N 53°54' E 011°27'0 0.0
2019-Aug-18 15:29N 53°54' E 011°27'0 0.0
2019-Aug-18 14:59N 53°54' E 011°27'0 0.0
2019-Aug-18 14:26N 53°54' E 011°27'0 0.0
2019-Aug-18 13:53N 53°54' E 011°27'1 2.4
2019-Aug-18 13:22N 53°55' E 011°26'2 4.8
2019-Aug-18 13:00N 53°56' E 011°25'2 3.7
2019-Aug-18 12:23N 53°58' E 011°22'2 4.2
2019-Aug-18 11:59N 53°58' E 011°19'2 3.4
2019-Aug-18 11:29N 53°59' E 011°16'2 3.6
2019-Aug-18 10:57N 53°58' E 011°19'2 3.4
2019-Aug-18 10:30N 53°58' E 011°22'1 1.6
2019-Aug-18 10:00N 53°57' E 011°23'4 7.0
2019-Aug-18 09:29N 53°54' E 011°27'1 0.7
2019-Aug-18 08:24N 53°54' E 011°27'0 0.0
2019-Aug-18 07:00N 53°54' E 011°27'0 0.0
2019-Aug-18 06:06N 53°54' E 011°27'0 0.1
2019-Aug-18 06:00N 53°54' E 011°27'0 0.0
2019-Aug-18 05:00N 53°54' E 011°27'0 0.0
2019-Aug-18 04:24N 53°54' E 011°27'0 0.0
2019-Aug-18 03:03N 53°54' E 011°27'0 0.0
2019-Aug-18 02:24N 53°54' E 011°27'0 0.0
2019-Aug-18 01:33N 53°54' E 011°27'0 0.0
2019-Aug-18 01:27N 53°54' E 011°27'0 0.0
2019-Aug-18 00:57N 53°54' E 011°27'0 0.0
2019-Aug-18 00:27N 53°54' E 011°27'0 0.0
2019-Aug-17 23:45N 53°54' E 011°27'0 0.0
2019-Aug-17 23:30N 53°54' E 011°27'0 0.0
2019-Aug-17 22:15N 53°54' E 011°27'0 0.0
2019-Aug-17 21:24N 53°54' E 011°27'0 0.0
2019-Aug-17 20:54N 53°54' E 011°27'0 0.0
2019-Aug-17 20:21N 53°54' E 011°27'0 0.0
2019-Aug-17 19:39N 53°54' E 011°27'0 0.0
2019-Aug-17 19:30N 53°54' E 011°27'0 0.0
2019-Aug-17 18:57N 53°54' E 011°27'0 0.0
2019-Aug-17 18:27N 53°54' E 011°27'0 0.0
2019-Aug-17 17:21N 53°54' E 011°27'0 0.0
2019-Aug-17 16:45N 53°54' E 011°27'0 0.0
2019-Aug-17 16:09N 53°54' E 011°27'0 0.0
2019-Aug-17 16:00N 53°54' E 011°27'0 0.0
2019-Aug-17 14:27N 53°54' E 011°27'1 2.7
2019-Aug-17 13:56N 53°55' E 011°26'3 6.1
2019-Aug-17 13:26N 53°58' E 011°23'2 4.2
2019-Aug-17 12:58N 53°58' E 011°20'1 2.1
2019-Aug-17 12:27N 53°58' E 011°22'1 1.0
2019-Aug-17 11:58N 53°58' E 011°23'2 4.3
2019-Aug-17 11:28N 53°58' E 011°19'0 0.4
2019-Aug-17 10:58N 53°59' E 011°19'3 5.4
2019-Aug-17 10:27N 53°58' E 011°23'1 2.6
2019-Aug-17 10:01N 53°57' E 011°25'3 0.7
2019-Aug-17 05:18N 53°54' E 011°27'0 0.0
2019-Aug-17 05:00N 53°54' E 011°27'0 0.0
2019-Aug-17 04:03N 53°54' E 011°27'0 0.0
2019-Aug-17 03:57N 53°54' E 011°27'0 0.0
2019-Aug-17 02:57N 53°54' E 011°27'0 0.0
2019-Aug-17 02:18N 53°54' E 011°27'0 0.0
2019-Aug-17 01:45N 53°54' E 011°27'0 0.0
2019-Aug-17 01:06N 53°54' E 011°27'0 0.0
2019-Aug-17 00:45N 53°54' E 011°27'0 0.0
2019-Aug-17 00:15N 53°54' E 011°27'0 0.0
2019-Aug-16 23:51N 53°54' E 011°27'0 0.0
2019-Aug-16 23:24N 53°54' E 011°27'0 0.0
2019-Aug-16 22:48N 53°54' E 011°27'0 0.0
2019-Aug-16 22:27N 53°54' E 011°27'0 0.0
2019-Aug-16 21:15N 53°54' E 011°27'0 0.0
2019-Aug-16 20:48N 53°54' E 011°27'0 0.0
2019-Aug-16 20:12N 53°54' E 011°27'0 0.0
2019-Aug-16 19:51N 53°54' E 011°27'0 0.0
2019-Aug-16 19:06N 53°54' E 011°27'0 0.0
2019-Aug-16 18:42N 53°54' E 011°27'0 0.1
2019-Aug-16 18:30N 53°54' E 011°27'0 0.0
2019-Aug-16 17:57N 53°54' E 011°27'0 0.0
2019-Aug-16 17:24N 53°54' E 011°27'0 0.0
2019-Aug-16 16:54N 53°54' E 011°27'0 0.0
2019-Aug-16 15:51N 53°54' E 011°27'0 0.0
2019-Aug-16 15:30N 53°54' E 011°27'0 0.0
2019-Aug-16 14:48N 53°54' E 011°27'0 0.0
2019-Aug-16 14:09N 53°54' E 011°27'0 0.0
2019-Aug-16 13:39N 53°54' E 011°27'0 0.0
2019-Aug-16 13:30N 53°54' E 011°27'0 0.0
2019-Aug-16 11:54N 53°54' E 011°27'0 0.0
2019-Aug-16 11:15N 53°54' E 011°27'0 0.0
2019-Aug-16 11:00N 53°54' E 011°27'0 0.0
2019-Aug-16 09:51N 53°54' E 011°27'0 0.0
2019-Aug-16 09:09N 53°54' E 011°27'0 0.0
2019-Aug-16 08:30N 53°54' E 011°27'0 0.0
2019-Aug-16 07:21N 53°54' E 011°27'0 0.0
2019-Aug-16 06:00N 53°54' E 011°27'0 0.0
2019-Aug-16 05:30N 53°54' E 011°27'0 0.0
2019-Aug-16 04:06N 53°54' E 011°27'0 0.0
2019-Aug-16 03:48N 53°54' E 011°27'0 0.0
2019-Aug-16 03:27N 53°54' E 011°27'0 0.0
2019-Aug-16 02:51N 53°54' E 011°27'0 0.0
2019-Aug-16 02:15N 53°54' E 011°27'0 0.0
2019-Aug-16 01:18N 53°54' E 011°27'0 0.0
2019-Aug-15 23:36N 53°54' E 011°27'0 0.0
2019-Aug-15 22:27N 53°54' E 011°27'0 0.0
2019-Aug-15 21:57N 53°54' E 011°27'0 0.0
2019-Aug-15 21:00N 53°54' E 011°27'0 0.0
2019-Aug-15 19:57N 53°54' E 011°27'0 0.0
2019-Aug-15 19:12N 53°54' E 011°27'0 0.0
2019-Aug-15 19:00N 53°54' E 011°27'0 0.0
2019-Aug-15 18:00N 53°54' E 011°27'0 0.0
2019-Aug-15 17:12N 53°54' E 011°27'0 0.2
2019-Aug-15 16:54N 53°54' E 011°27'2 6.1
2019-Aug-15 16:30N 53°56' E 011°25'3 4.8
2019-Aug-15 15:55N 53°58' E 011°21'1 2.9
2019-Aug-15 15:30N 53°57' E 011°24'1 1.0
2019-Aug-15 15:00N 53°57' E 011°24'4 6.5
2019-Aug-15 14:28N 53°54' E 011°27'0 0.4
2019-Aug-15 13:38N 53°54' E 011°27'0 0.0
2019-Aug-15 13:20N 53°54' E 011°27'0 0.0
2019-Aug-15 12:59N 53°54' E 011°27'0 0.0
2019-Aug-15 12:20N 53°54' E 011°27'0 0.0
2019-Aug-15 11:47N 53°54' E 011°27'0 0.0
2019-Aug-15 10:47N 53°54' E 011°27'0 0.0
2019-Aug-15 10:26N 53°54' E 011°27'0 0.0
2019-Aug-15 09:56N 53°54' E 011°27'0 0.0
2019-Aug-15 09:05N 53°54' E 011°27'0 0.0
2019-Aug-15 08:47N 53°54' E 011°27'0 0.0
2019-Aug-15 07:32N 53°54' E 011°27'0 0.1
2019-Aug-15 07:23N 53°54' E 011°27'0 0.0
2019-Aug-15 06:59N 53°54' E 011°27'0 0.0
2019-Aug-15 06:23N 53°54' E 011°27'0 0.0
2019-Aug-15 05:59N 53°54' E 011°27'0 0.0
2019-Aug-15 05:05N 53°54' E 011°27'0 0.0
2019-Aug-15 04:38N 53°54' E 011°27'0 0.0
2019-Aug-15 04:20N 53°54' E 011°27'0 0.0
2019-Aug-15 03:59N 53°54' E 011°27'0 0.0
2019-Aug-15 02:26N 53°54' E 011°27'0 0.0
2019-Aug-15 01:47N 53°54' E 011°27'0 0.0
2019-Aug-15 01:23N 53°54' E 011°27'0 0.0
2019-Aug-15 00:47N 53°54' E 011°27'0 0.0
2019-Aug-15 00:29N 53°54' E 011°27'0 0.0
2019-Aug-14 23:56N 53°54' E 011°27'0 0.0
2019-Aug-14 23:23N 53°54' E 011°27'0 0.0
2019-Aug-14 22:56N 53°54' E 011°27'0 0.0
2019-Aug-14 22:20N 53°54' E 011°27'0 0.0
2019-Aug-14 21:53N 53°54' E 011°27'0 0.0
2019-Aug-14 21:23N 53°54' E 011°27'0 0.0
2019-Aug-14 20:26N 53°54' E 011°27'0 0.0
2019-Aug-14 19:11N 53°54' E 011°27'0 0.0
2019-Aug-14 18:38N 53°54' E 011°27'0 0.0
2019-Aug-14 18:11N 53°54' E 011°27'0 0.0
2019-Aug-14 17:59N 53°54' E 011°27'0 0.0
2019-Aug-14 17:17N 53°54' E 011°27'0 0.0
2019-Aug-14 16:26N 53°54' E 011°27'0 0.0
2019-Aug-14 15:53N 53°54' E 011°27'0 0.0
2019-Aug-14 15:23N 53°54' E 011°27'0 0.0
2019-Aug-14 13:56N 53°54' E 011°27'0 0.0
2019-Aug-14 13:23N 53°54' E 011°27'0 0.0
2019-Aug-14 12:59N 53°54' E 011°27'0 0.0
2019-Aug-14 12:26N 53°54' E 011°27'0 0.0
2019-Aug-14 03:50N 53°54' E 011°27'0 0.0
2019-Aug-14 03:23N 53°54' E 011°27'0 0.0
2019-Aug-14 02:47N 53°54' E 011°27'0 0.0
2019-Aug-14 02:20N 53°54' E 011°27'0 0.0
2019-Aug-14 01:56N 53°54' E 011°27'0 0.0
2019-Aug-14 01:26N 53°54' E 011°27'0 0.0
2019-Aug-14 00:11N 53°54' E 011°27'0 0.0
2019-Aug-13 23:53N 53°54' E 011°27'0 0.0
2019-Aug-13 23:23N 53°54' E 011°27'0 0.0
2019-Aug-13 22:53N 53°54' E 011°27'0 0.0
2019-Aug-13 22:29N 53°54' E 011°27'0 0.0
2019-Aug-13 21:47N 53°54' E 011°27'0 0.0
2019-Aug-13 20:41N 53°54' E 011°27'0 0.0
2019-Aug-13 20:14N 53°54' E 011°27'0 0.1
2019-Aug-13 19:53N 53°54' E 011°27'0 0.0
2019-Aug-13 19:29N 53°54' E 011°27'0 0.0
2019-Aug-13 18:53N 53°54' E 011°27'0 0.0
2019-Aug-13 18:11N 53°54' E 011°27'0 0.0
2019-Aug-13 17:26N 53°54' E 011°27'0 0.0
2019-Aug-13 16:50N 53°54' E 011°27'0 0.0
2019-Aug-13 16:17N 53°54' E 011°27'0 0.0
2019-Aug-13 15:41N 53°54' E 011°27'0 0.0
2019-Aug-13 10:27N 53°54' E 011°27'3 5.7
2019-Aug-13 10:00N 53°56' E 011°25'2 4.1
2019-Aug-13 09:27N 53°58' E 011°22'2 4.9
2019-Aug-13 08:57N 53°58' E 011°18'2 3.7
2019-Aug-13 08:24N 53°57' E 011°15'0 0.1
2019-Aug-13 07:22N 53°58' E 011°15'0 0.0
2019-Aug-13 06:58N 53°58' E 011°15'0 0.0
2019-Aug-13 05:43N 53°58' E 011°15'0 0.0
2019-Aug-13 05:07N 53°58' E 011°15'0 0.0
2019-Aug-13 04:28N 53°58' E 011°15'0 0.0
2019-Aug-13 03:37N 53°58' E 011°15'0 0.0
2019-Aug-13 02:40N 53°58' E 011°15'0 0.0
2019-Aug-13 01:37N 53°58' E 011°15'0 0.0
2019-Aug-13 01:01N 53°58' E 011°15'0 0.0
2019-Aug-13 00:25N 53°58' E 011°15'0 0.0
2019-Aug-12 23:55N 53°58' E 011°15'0 0.0
2019-Aug-12 23:19N 53°58' E 011°15'0 0.0
2019-Aug-12 22:58N 53°58' E 011°15'0 0.0
2019-Aug-12 22:19N 53°58' E 011°15'0 0.0
2019-Aug-12 21:55N 53°58' E 011°15'0 0.0
2019-Aug-12 21:28N 53°58' E 011°15'0 0.0
2019-Aug-12 20:22N 53°58' E 011°15'0 0.0
2019-Aug-12 19:55N 53°58' E 011°15'2 1.0
2019-Aug-12 17:55N 53°58' E 011°18'3 6.8
2019-Aug-12 17:29N 54°01' E 011°20'4 7.1
2019-Aug-12 16:58N 54°03' E 011°26'5 7.6
2019-Aug-12 16:19N 54°07' E 011°31'3 7.7
2019-Aug-12 16:00N 54°08' E 011°34'11 7.0
2019-Aug-12 14:26N 54°11' E 011°52'3 6.6
2019-Aug-12 13:59N 54°11' E 011°57'4 6.8
2019-Aug-12 13:28N 54°11' E 012°03'6 1.5
2019-Aug-12 09:35N 54°06' E 012°07'0 0.0
2019-Aug-12 09:17N 54°06' E 012°07'0 0.0
2019-Aug-12 08:47N 54°06' E 012°07'0 0.0
2019-Aug-12 07:29N 54°06' E 012°07'0 0.0
2019-Aug-12 06:18N 54°06' E 012°07'0 0.0
2019-Aug-12 05:38N 54°06' E 012°07'0 0.0
2019-Aug-12 05:11N 54°06' E 012°07'0 0.0
2019-Aug-12 04:53N 54°06' E 012°07'0 0.0
2019-Aug-12 04:20N 54°06' E 012°07'0 0.0
2019-Aug-12 03:56N 54°06' E 012°07'0 0.0
2019-Aug-12 03:26N 54°06' E 012°07'0 0.0
2019-Aug-12 02:59N 54°06' E 012°07'0 0.0
2019-Aug-12 02:26N 54°06' E 012°07'0 0.0
2019-Aug-12 01:56N 54°06' E 012°07'0 0.0
2019-Aug-12 01:26N 54°06' E 012°07'0 0.0
2019-Aug-12 00:56N 54°06' E 012°07'0 0.0
2019-Aug-12 00:26N 54°06' E 012°07'0 0.0
2019-Aug-11 23:59N 54°06' E 012°07'0 0.0
2019-Aug-11 23:26N 54°06' E 012°07'0 0.0
2019-Aug-11 22:56N 54°06' E 012°07'0 0.0
2019-Aug-11 22:26N 54°06' E 012°07'0 0.0
2019-Aug-11 21:50N 54°06' E 012°07'0 0.0
2019-Aug-11 21:26N 54°06' E 012°07'0 0.0
2019-Aug-11 20:56N 54°06' E 012°07'0 0.0
2019-Aug-11 20:26N 54°06' E 012°07'0 0.0
2019-Aug-11 19:56N 54°06' E 012°07'0 0.0
2019-Aug-11 19:26N 54°06' E 012°07'0 0.0
2019-Aug-11 18:59N 54°06' E 012°07'0 0.0
2019-Aug-11 18:26N 54°06' E 012°07'  

Dump ship's entire track history